sensor_id;sensor_type;location;lat;lon;timestamp;temperature;humidity
35491;DHT22;21605;52.068;20.806;2023-12-22T00:01:18;5.90;99.90
35491;DHT22;21605;52.068;20.806;2023-12-22T00:03:58;5.90;99.90
35491;DHT22;21605;52.068;20.806;2023-12-22T00:06:24;5.70;99.90
35491;DHT22;21605;52.068;20.806;2023-12-22T00:08:54;5.80;99.90
35491;DHT22;21605;52.068;20.806;2023-12-22T00:11:20;5.90;99.90
35491;DHT22;21605;52.068;20.806;2023-12-22T00:13:55;5.80;99.90
35491;DHT22;21605;52.068;20.806;2023-12-22T00:16:20;5.90;99.90
35491;DHT22;21605;52.068;20.806;2023-12-22T00:18:58;5.90;99.90
35491;DHT22;21605;52.068;20.806;2023-12-22T00:21:23;5.80;99.90
35491;DHT22;21605;52.068;20.806;2023-12-22T00:23:54;5.80;99.90
35491;DHT22;21605;52.068;20.806;2023-12-22T00:26:20;5.70;99.90
35491;DHT22;21605;52.068;20.806;2023-12-22T00:28:55;5.70;99.90
35491;DHT22;21605;52.068;20.806;2023-12-22T00:31:20;5.70;99.90
35491;DHT22;21605;52.068;20.806;2023-12-22T00:33:55;5.70;99.90
35491;DHT22;21605;52.068;20.806;2023-12-22T00:36:21;5.50;99.90
35491;DHT22;21605;52.068;20.806;2023-12-22T00:38:58;5.60;99.90
35491;DHT22;21605;52.068;20.806;2023-12-22T00:41:24;5.60;99.90
35491;DHT22;21605;52.068;20.806;2023-12-22T00:43:54;5.50;99.90
35491;DHT22;21605;52.068;20.806;2023-12-22T00:46:20;5.50;99.90
35491;DHT22;21605;52.068;20.806;2023-12-22T00:48:54;5.30;99.90
35491;DHT22;21605;52.068;20.806;2023-12-22T00:51:20;5.30;99.90
35491;DHT22;21605;52.068;20.806;2023-12-22T00:53:45;5.40;99.90
35491;DHT22;21605;52.068;20.806;2023-12-22T00:56:11;5.40;99.90
35491;DHT22;21605;52.068;20.806;2023-12-22T00:58:39;5.40;99.90
35491;DHT22;21605;52.068;20.806;2023-12-22T01:01:04;5.30;99.90
35491;DHT22;21605;52.068;20.806;2023-12-22T01:03:30;5.30;99.90
35491;DHT22;21605;52.068;20.806;2023-12-22T01:05:56;5.30;99.90
35491;DHT22;21605;52.068;20.806;2023-12-22T01:08:21;5.20;99.90
35491;DHT22;21605;52.068;20.806;2023-12-22T01:10:56;5.20;99.90
35491;DHT22;21605;52.068;20.806;2023-12-22T01:13:22;5.10;99.90
35491;DHT22;21605;52.068;20.806;2023-12-22T01:15:56;5.20;99.90
35491;DHT22;21605;52.068;20.806;2023-12-22T01:18:22;5.10;99.90
35491;DHT22;21605;52.068;20.806;2023-12-22T01:20:57;5.10;99.90
35491;DHT22;21605;52.068;20.806;2023-12-22T01:23:22;5.10;99.90
35491;DHT22;21605;52.068;20.806;2023-12-22T01:25:59;5.10;99.90
35491;DHT22;21605;52.068;20.806;2023-12-22T01:28:26;5.10;99.90
35491;DHT22;21605;52.068;20.806;2023-12-22T01:31:01;5.00;99.90
35491;DHT22;21605;52.068;20.806;2023-12-22T01:33:26;5.00;99.90
35491;DHT22;21605;52.068;20.806;2023-12-22T01:35:57;5.00;99.90
35491;DHT22;21605;52.068;20.806;2023-12-22T01:38:23;5.00;99.90
35491;DHT22;21605;52.068;20.806;2023-12-22T01:40:57;5.00;99.90
35491;DHT22;21605;52.068;20.806;2023-12-22T01:43:23;4.90;99.90
35491;DHT22;21605;52.068;20.806;2023-12-22T01:45:55;5.10;99.90
35491;DHT22;21605;52.068;20.806;2023-12-22T01:48:23;5.00;99.90
35491;DHT22;21605;52.068;20.806;2023-12-22T01:50:59;5.00;99.90
35491;DHT22;21605;52.068;20.806;2023-12-22T01:53:26;4.90;99.90
35491;DHT22;21605;52.068;20.806;2023-12-22T01:56:02;5.00;99.90
35491;DHT22;21605;52.068;20.806;2023-12-22T01:58:28;5.00;99.90
35491;DHT22;21605;52.068;20.806;2023-12-22T02:00:56;5.00;99.90
35491;DHT22;21605;52.068;20.806;2023-12-22T02:03:22;4.90;99.90
35491;DHT22;21605;52.068;20.806;2023-12-22T02:05:48;4.90;99.90
35491;DHT22;21605;52.068;20.806;2023-12-22T02:08:32;4.90;99.90
35491;DHT22;21605;52.068;20.806;2023-12-22T02:10:58;4.90;99.90
35491;DHT22;21605;52.068;20.806;2023-12-22T02:13:24;4.90;99.90
35491;DHT22;21605;52.068;20.806;2023-12-22T02:16:04;5.00;99.90
35491;DHT22;21605;52.068;20.806;2023-12-22T02:18:39;5.00;99.90
35491;DHT22;21605;52.068;20.806;2023-12-22T02:21:04;5.10;99.90
35491;DHT22;21605;52.068;20.806;2023-12-22T02:23:30;5.00;99.90
35491;DHT22;21605;52.068;20.806;2023-12-22T02:26:02;5.00;99.90
35491;DHT22;21605;52.068;20.806;2023-12-22T02:28:30;5.10;99.90
35491;DHT22;21605;52.068;20.806;2023-12-22T02:31:03;5.00;99.90
35491;DHT22;21605;52.068;20.806;2023-12-22T02:33:31;5.10;99.90
35491;DHT22;21605;52.068;20.806;2023-12-22T02:36:08;5.10;99.90
35491;DHT22;21605;52.068;20.806;2023-12-22T02:38:35;5.10;99.90
35491;DHT22;21605;52.068;20.806;2023-12-22T02:41:02;5.30;99.90
35491;DHT22;21605;52.068;20.806;2023-12-22T02:43:28;5.30;99.90
35491;DHT22;21605;52.068;20.806;2023-12-22T02:45:54;5.20;99.90
35491;DHT22;21605;52.068;20.806;2023-12-22T02:48:19;5.20;99.90
35491;DHT22;21605;52.068;20.806;2023-12-22T02:50:45;5.10;99.90
35491;DHT22;21605;52.068;20.806;2023-12-22T02:53:11;5.00;99.90
35491;DHT22;21605;52.068;20.806;2023-12-22T02:55:36;5.10;99.90
35491;DHT22;21605;52.068;20.806;2023-12-22T02:58:02;5.10;99.90
35491;DHT22;21605;52.068;20.806;2023-12-22T03:00:27;5.10;99.90
35491;DHT22;21605;52.068;20.806;2023-12-22T03:02:56;5.00;99.90
35491;DHT22;21605;52.068;20.806;2023-12-22T03:05:21;5.10;99.90
35491;DHT22;21605;52.068;20.806;2023-12-22T03:07:47;5.10;99.90
35491;DHT22;21605;52.068;20.806;2023-12-22T03:10:13;5.10;99.90
35491;DHT22;21605;52.068;20.806;2023-12-22T03:12:38;5.20;99.90
35491;DHT22;21605;52.068;20.806;2023-12-22T03:15:04;5.20;99.90
35491;DHT22;21605;52.068;20.806;2023-12-22T03:17:30;5.10;99.90
35491;DHT22;21605;52.068;20.806;2023-12-22T03:20:05;5.20;99.90
35491;DHT22;21605;52.068;20.806;2023-12-22T03:22:31;5.10;99.90
35491;DHT22;21605;52.068;20.806;2023-12-22T03:25:02;5.00;99.90
35491;DHT22;21605;52.068;20.806;2023-12-22T03:27:28;5.00;99.90
35491;DHT22;21605;52.068;20.806;2023-12-22T03:29:53;5.10;99.90
35491;DHT22;21605;52.068;20.806;2023-12-22T03:32:19;5.10;99.90
35491;DHT22;21605;52.068;20.806;2023-12-22T03:34:45;5.00;99.90
35491;DHT22;21605;52.068;20.806;2023-12-22T03:37:10;5.00;99.90
35491;DHT22;21605;52.068;20.806;2023-12-22T03:39:36;5.00;99.90
35491;DHT22;21605;52.068;20.806;2023-12-22T03:42:01;4.90;99.90
35491;DHT22;21605;52.068;20.806;2023-12-22T03:44:27;4.90;99.90
35491;DHT22;21605;52.068;20.806;2023-12-22T03:46:53;4.90;99.90
35491;DHT22;21605;52.068;20.806;2023-12-22T03:49:18;4.90;99.90
35491;DHT22;21605;52.068;20.806;2023-12-22T03:51:45;4.90;99.90
35491;DHT22;21605;52.068;20.806;2023-12-22T03:54:10;4.90;99.90
35491;DHT22;21605;52.068;20.806;2023-12-22T03:56:37;5.10;99.90
35491;DHT22;21605;52.068;20.806;2023-12-22T03:59:02;4.90;99.90
35491;DHT22;21605;52.068;20.806;2023-12-22T04:01:28;5.00;99.90
35491;DHT22;21605;52.068;20.806;2023-12-22T04:03:54;5.00;99.90
35491;DHT22;21605;52.068;20.806;2023-12-22T04:06:19;4.90;99.90
35491;DHT22;21605;52.068;20.806;2023-12-22T04:08:45;5.00;99.90
35491;DHT22;21605;52.068;20.806;2023-12-22T04:11:11;4.90;99.90
35491;DHT22;21605;52.068;20.806;2023-12-22T04:13:36;4.80;99.90
35491;DHT22;21605;52.068;20.806;2023-12-22T04:16:02;4.80;99.90
35491;DHT22;21605;52.068;20.806;2023-12-22T04:18:30;4.80;99.90
35491;DHT22;21605;52.068;20.806;2023-12-22T04:20:55;4.80;99.90
35491;DHT22;21605;52.068;20.806;2023-12-22T04:23:21;4.80;99.90
35491;DHT22;21605;52.068;20.806;2023-12-22T04:25:47;4.70;99.90
35491;DHT22;21605;52.068;20.806;2023-12-22T04:28:13;4.70;99.90
35491;DHT22;21605;52.068;20.806;2023-12-22T04:30:38;4.80;99.90
35491;DHT22;21605;52.068;20.806;2023-12-22T04:33:04;4.70;99.90
35491;DHT22;21605;52.068;20.806;2023-12-22T04:35:29;4.70;99.90
35491;DHT22;21605;52.068;20.806;2023-12-22T04:37:55;4.70;99.90
35491;DHT22;21605;52.068;20.806;2023-12-22T04:40:21;4.70;99.90
35491;DHT22;21605;52.068;20.806;2023-12-22T04:42:46;4.60;99.90
35491;DHT22;21605;52.068;20.806;2023-12-22T04:45:12;4.70;99.90
35491;DHT22;21605;52.068;20.806;2023-12-22T04:47:38;4.70;99.90
35491;DHT22;21605;52.068;20.806;2023-12-22T04:50:09;4.80;99.90
35491;DHT22;21605;52.068;20.806;2023-12-22T04:52:34;4.70;99.90
35491;DHT22;21605;52.068;20.806;2023-12-22T04:55:05;4.50;99.90
35491;DHT22;21605;52.068;20.806;2023-12-22T04:57:31;4.50;99.90
35491;DHT22;21605;52.068;20.806;2023-12-22T04:59:56;4.50;99.90
35491;DHT22;21605;52.068;20.806;2023-12-22T05:02:22;4.50;99.90
35491;DHT22;21605;52.068;20.806;2023-12-22T05:04:48;4.40;99.90
35491;DHT22;21605;52.068;20.806;2023-12-22T05:07:13;4.30;99.90
35491;DHT22;21605;52.068;20.806;2023-12-22T05:09:41;4.40;99.90
35491;DHT22;21605;52.068;20.806;2023-12-22T05:12:07;4.30;99.90
35491;DHT22;21605;52.068;20.806;2023-12-22T05:14:32;4.30;99.90
35491;DHT22;21605;52.068;20.806;2023-12-22T05:16:58;4.30;99.90
35491;DHT22;21605;52.068;20.806;2023-12-22T05:19:24;4.30;99.90
35491;DHT22;21605;52.068;20.806;2023-12-22T05:21:49;4.30;99.90
35491;DHT22;21605;52.068;20.806;2023-12-22T05:24:18;4.20;99.90
35491;DHT22;21605;52.068;20.806;2023-12-22T05:26:43;4.20;99.90
35491;DHT22;21605;52.068;20.806;2023-12-22T05:29:09;4.20;99.90
35491;DHT22;21605;52.068;20.806;2023-12-22T05:31:35;4.20;99.90
35491;DHT22;21605;52.068;20.806;2023-12-22T05:34:00;4.20;99.90
35491;DHT22;21605;52.068;20.806;2023-12-22T05:36:26;4.20;99.90
35491;DHT22;21605;52.068;20.806;2023-12-22T05:38:51;4.20;99.90
35491;DHT22;21605;52.068;20.806;2023-12-22T05:41:17;4.20;99.90
35491;DHT22;21605;52.068;20.806;2023-12-22T05:43:43;4.10;99.90
35491;DHT22;21605;52.068;20.806;2023-12-22T05:46:08;4.10;99.90
35491;DHT22;21605;52.068;20.806;2023-12-22T05:48:35;4.20;99.90
35491;DHT22;21605;52.068;20.806;2023-12-22T05:51:00;4.10;99.90
35491;DHT22;21605;52.068;20.806;2023-12-22T05:53:28;4.00;99.90
35491;DHT22;21605;52.068;20.806;2023-12-22T05:55:54;4.20;99.90
35491;DHT22;21605;52.068;20.806;2023-12-22T05:58:20;4.20;99.90
35491;DHT22;21605;52.068;20.806;2023-12-22T06:00:45;4.20;99.90
35491;DHT22;21605;52.068;20.806;2023-12-22T06:03:11;4.10;99.90
35491;DHT22;21605;52.068;20.806;2023-12-22T06:05:36;4.10;99.90
35491;DHT22;21605;52.068;20.806;2023-12-22T06:08:02;4.10;99.90
35491;DHT22;21605;52.068;20.806;2023-12-22T06:10:28;4.10;99.90
35491;DHT22;21605;52.068;20.806;2023-12-22T06:12:53;4.10;99.90
35491;DHT22;21605;52.068;20.806;2023-12-22T06:15:19;4.10;99.90
35491;DHT22;21605;52.068;20.806;2023-12-22T06:17:44;4.10;99.90
35491;DHT22;21605;52.068;20.806;2023-12-22T06:20:10;4.10;99.90
35491;DHT22;21605;52.068;20.806;2023-12-22T06:22:36;4.10;99.90
35491;DHT22;21605;52.068;20.806;2023-12-22T06:25:01;4.00;99.90
35491;DHT22;21605;52.068;20.806;2023-12-22T06:27:35;4.00;99.90
35491;DHT22;21605;52.068;20.806;2023-12-22T06:30:03;4.00;99.90
35491;DHT22;21605;52.068;20.806;2023-12-22T06:32:29;4.00;99.90
35491;DHT22;21605;52.068;20.806;2023-12-22T06:34:54;4.00;99.90
35491;DHT22;21605;52.068;20.806;2023-12-22T06:37:20;4.00;99.90
35491;DHT22;21605;52.068;20.806;2023-12-22T06:39:45;4.00;99.90
35491;DHT22;21605;52.068;20.806;2023-12-22T06:42:16;4.00;99.90
35491;DHT22;21605;52.068;20.806;2023-12-22T06:44:42;4.10;99.90
35491;DHT22;21605;52.068;20.806;2023-12-22T06:47:17;4.10;99.90
35491;DHT22;21605;52.068;20.806;2023-12-22T06:49:43;4.10;99.90
35491;DHT22;21605;52.068;20.806;2023-12-22T06:52:15;4.10;99.90
35491;DHT22;21605;52.068;20.806;2023-12-22T06:54:41;4.10;99.90
35491;DHT22;21605;52.068;20.806;2023-12-22T06:57:13;4.10;99.90
35491;DHT22;21605;52.068;20.806;2023-12-22T06:59:39;4.10;99.90
35491;DHT22;21605;52.068;20.806;2023-12-22T07:02:11;4.10;99.90
35491;DHT22;21605;52.068;20.806;2023-12-22T07:04:59;4.10;99.90
35491;DHT22;21605;52.068;20.806;2023-12-22T07:07:39;4.10;99.90
35491;DHT22;21605;52.068;20.806;2023-12-22T07:10:13;4.10;99.90
35491;DHT22;21605;52.068;20.806;2023-12-22T07:12:39;4.70;99.90
35491;DHT22;21605;52.068;20.806;2023-12-22T07:15:14;4.10;99.90
35491;DHT22;21605;52.068;20.806;2023-12-22T07:17:39;4.00;99.90
35491;DHT22;21605;52.068;20.806;2023-12-22T07:20:14;4.20;99.90
35491;DHT22;21605;52.068;20.806;2023-12-22T07:22:40;4.10;99.90
35491;DHT22;21605;52.068;20.806;2023-12-22T07:25:06;4.10;99.90
35491;DHT22;21605;52.068;20.806;2023-12-22T07:27:32;4.10;99.90
35491;DHT22;21605;52.068;20.806;2023-12-22T07:29:58;4.10;99.90
35491;DHT22;21605;52.068;20.806;2023-12-22T07:32:24;4.10;99.90
35491;DHT22;21605;52.068;20.806;2023-12-22T07:34:49;4.10;99.90
35491;DHT22;21605;52.068;20.806;2023-12-22T07:37:15;4.10;99.90
35491;DHT22;21605;52.068;20.806;2023-12-22T07:39:40;4.00;99.90
35491;DHT22;21605;52.068;20.806;2023-12-22T07:42:16;4.00;99.90
35491;DHT22;21605;52.068;20.806;2023-12-22T07:44:41;4.00;99.90
35491;DHT22;21605;52.068;20.806;2023-12-22T07:47:16;5.80;99.90
35491;DHT22;21605;52.068;20.806;2023-12-22T07:49:42;3.90;99.90
35491;DHT22;21605;52.068;20.806;2023-12-22T07:52:13;3.80;99.90
35491;DHT22;21605;52.068;20.806;2023-12-22T07:54:39;3.90;99.90
35491;DHT22;21605;52.068;20.806;2023-12-22T07:57:20;3.90;99.90
35491;DHT22;21605;52.068;20.806;2023-12-22T07:59:45;3.90;99.90
35491;DHT22;21605;52.068;20.806;2023-12-22T08:02:12;3.90;99.90
35491;DHT22;21605;52.068;20.806;2023-12-22T08:04:38;3.80;99.90
35491;DHT22;21605;52.068;20.806;2023-12-22T08:07:04;3.80;99.90
35491;DHT22;21605;52.068;20.806;2023-12-22T08:09:30;3.80;99.90
35491;DHT22;21605;52.068;20.806;2023-12-22T08:11:55;3.80;99.90
35491;DHT22;21605;52.068;20.806;2023-12-22T08:14:22;3.80;99.90
35491;DHT22;21605;52.068;20.806;2023-12-22T08:16:48;3.90;99.90
35491;DHT22;21605;52.068;20.806;2023-12-22T08:19:14;3.90;99.90
35491;DHT22;21605;52.068;20.806;2023-12-22T08:21:42;3.90;99.90
35491;DHT22;21605;52.068;20.806;2023-12-22T08:24:11;3.90;99.90
35491;DHT22;21605;52.068;20.806;2023-12-22T08:26:37;2.70;99.90
35491;DHT22;21605;52.068;20.806;2023-12-22T08:29:03;4.00;99.90
35491;DHT22;21605;52.068;20.806;2023-12-22T08:31:28;4.20;99.90
35491;DHT22;21605;52.068;20.806;2023-12-22T08:33:54;4.10;99.90
35491;DHT22;21605;52.068;20.806;2023-12-22T08:36:19;4.20;99.90
35491;DHT22;21605;52.068;20.806;2023-12-22T08:38:45;5.70;99.90
35491;DHT22;21605;52.068;20.806;2023-12-22T08:41:20;4.30;99.90
35491;DHT22;21605;52.068;20.806;2023-12-22T08:43:45;4.40;99.90
35491;DHT22;21605;52.068;20.806;2023-12-22T08:46:16;4.40;99.90
35491;DHT22;21605;52.068;20.806;2023-12-22T08:48:42;4.20;99.90
35491;DHT22;21605;52.068;20.806;2023-12-22T08:51:17;4.30;99.90
35491;DHT22;21605;52.068;20.806;2023-12-22T08:53:42;4.20;99.90
35491;DHT22;21605;52.068;20.806;2023-12-22T08:56:08;4.30;99.90
35491;DHT22;21605;52.068;20.806;2023-12-22T08:58:34;4.30;99.90
35491;DHT22;21605;52.068;20.806;2023-12-22T09:01:00;4.20;99.90
35491;DHT22;21605;52.068;20.806;2023-12-22T09:03:25;4.30;99.90
35491;DHT22;21605;52.068;20.806;2023-12-22T09:05:52;4.40;99.90
35491;DHT22;21605;52.068;20.806;2023-12-22T09:08:17;4.20;99.90
35491;DHT22;21605;52.068;20.806;2023-12-22T09:10:43;4.30;99.90
35491;DHT22;21605;52.068;20.806;2023-12-22T09:13:15;4.40;99.90
35491;DHT22;21605;52.068;20.806;2023-12-22T09:15:41;4.40;99.90
35491;DHT22;21605;52.068;20.806;2023-12-22T09:18:07;4.40;99.90
35491;DHT22;21605;52.068;20.806;2023-12-22T09:20:33;4.40;99.90
35491;DHT22;21605;52.068;20.806;2023-12-22T09:22:58;4.60;99.90
35491;DHT22;21605;52.068;20.806;2023-12-22T09:25:24;4.60;99.90
35491;DHT22;21605;52.068;20.806;2023-12-22T09:27:51;4.70;99.90
35491;DHT22;21605;52.068;20.806;2023-12-22T09:30:20;4.70;99.90
35491;DHT22;21605;52.068;20.806;2023-12-22T09:32:45;4.80;99.90
35491;DHT22;21605;52.068;20.806;2023-12-22T09:35:20;4.70;99.90
35491;DHT22;21605;52.068;20.806;2023-12-22T09:37:46;4.70;99.90
35491;DHT22;21605;52.068;20.806;2023-12-22T09:40:20;4.90;99.90
35491;DHT22;21605;52.068;20.806;2023-12-22T09:42:47;5.00;99.90
35491;DHT22;21605;52.068;20.806;2023-12-22T09:45:16;5.10;99.90
35491;DHT22;21605;52.068;20.806;2023-12-22T09:47:44;5.20;99.90
35491;DHT22;21605;52.068;20.806;2023-12-22T09:50:21;5.30;99.90
35491;DHT22;21605;52.068;20.806;2023-12-22T09:52:47;5.20;99.90
35491;DHT22;21605;52.068;20.806;2023-12-22T09:55:22;5.30;99.90
35491;DHT22;21605;52.068;20.806;2023-12-22T09:57:49;5.70;99.90
35491;DHT22;21605;52.068;20.806;2023-12-22T10:00:21;5.40;99.90
35491;DHT22;21605;52.068;20.806;2023-12-22T10:02:48;5.50;99.90
35491;DHT22;21605;52.068;20.806;2023-12-22T10:05:19;5.50;99.90
35491;DHT22;21605;52.068;20.806;2023-12-22T10:07:46;5.50;99.90
35491;DHT22;21605;52.068;20.806;2023-12-22T10:10:12;5.50;99.90
35491;DHT22;21605;52.068;20.806;2023-12-22T10:12:39;5.50;99.90
35491;DHT22;21605;52.068;20.806;2023-12-22T10:15:06;5.50;99.90
35491;DHT22;21605;52.068;20.806;2023-12-22T10:17:33;5.30;99.90
35491;DHT22;21605;52.068;20.806;2023-12-22T10:19:59;5.20;99.90
35491;DHT22;21605;52.068;20.806;2023-12-22T10:22:25;5.20;99.90
35491;DHT22;21605;52.068;20.806;2023-12-22T10:24:50;5.20;99.90
35491;DHT22;21605;52.068;20.806;2023-12-22T10:27:21;5.00;99.90
35491;DHT22;21605;52.068;20.806;2023-12-22T10:29:55;4.70;99.90
35491;DHT22;21605;52.068;20.806;2023-12-22T10:32:21;4.50;99.90
35491;DHT22;21605;52.068;20.806;2023-12-22T10:34:48;4.30;99.90
35491;DHT22;21605;52.068;20.806;2023-12-22T10:37:23;3.80;99.90
35491;DHT22;21605;52.068;20.806;2023-12-22T10:39:55;3.80;99.90
35491;DHT22;21605;52.068;20.806;2023-12-22T10:42:21;3.60;99.90
35491;DHT22;21605;52.068;20.806;2023-12-22T10:44:47;3.60;99.90
35491;DHT22;21605;52.068;20.806;2023-12-22T10:47:18;3.50;99.90
35491;DHT22;21605;52.068;20.806;2023-12-22T10:49:46;3.20;99.90
35491;DHT22;21605;52.068;20.806;2023-12-22T10:52:23;3.80;99.90
35491;DHT22;21605;52.068;20.806;2023-12-22T10:54:49;3.10;99.90
35491;DHT22;21605;52.068;20.806;2023-12-22T10:57:24;3.00;99.90
35491;DHT22;21605;52.068;20.806;2023-12-22T10:59:51;3.10;99.90
35491;DHT22;21605;52.068;20.806;2023-12-22T11:02:22;3.00;99.90
35491;DHT22;21605;52.068;20.806;2023-12-22T11:05:01;3.00;99.90
35491;DHT22;21605;52.068;20.806;2023-12-22T11:07:28;2.90;99.90
35491;DHT22;21605;52.068;20.806;2023-12-22T11:09:56;2.90;99.90
35491;DHT22;21605;52.068;20.806;2023-12-22T11:12:23;2.80;99.90
35491;DHT22;21605;52.068;20.806;2023-12-22T11:14:51;2.80;99.90
35491;DHT22;21605;52.068;20.806;2023-12-22T11:17:23;2.80;99.90
35491;DHT22;21605;52.068;20.806;2023-12-22T11:19:49;2.90;99.90
35491;DHT22;21605;52.068;20.806;2023-12-22T11:22:25;2.80;99.90
35491;DHT22;21605;52.068;20.806;2023-12-22T11:24:51;2.90;99.90
35491;DHT22;21605;52.068;20.806;2023-12-22T11:27:25;2.80;99.90
35491;DHT22;21605;52.068;20.806;2023-12-22T11:29:52;2.80;99.90
35491;DHT22;21605;52.068;20.806;2023-12-22T11:32:19;3.00;99.90
35491;DHT22;21605;52.068;20.806;2023-12-22T11:34:48;2.90;99.90
35491;DHT22;21605;52.068;20.806;2023-12-22T11:37:30;3.10;99.90
35491;DHT22;21605;52.068;20.806;2023-12-22T11:39:56;3.20;99.90
35491;DHT22;21605;52.068;20.806;2023-12-22T11:42:25;3.40;99.90
35491;DHT22;21605;52.068;20.806;2023-12-22T11:44:53;3.40;99.90
35491;DHT22;21605;52.068;20.806;2023-12-22T11:47:25;3.50;99.90
35491;DHT22;21605;52.068;20.806;2023-12-22T11:49:54;3.60;99.90
35491;DHT22;21605;52.068;20.806;2023-12-22T11:52:26;3.60;99.90
35491;DHT22;21605;52.068;20.806;2023-12-22T11:54:54;3.70;99.90
35491;DHT22;21605;52.068;20.806;2023-12-22T12:00:19;3.60;99.90
35491;DHT22;21605;52.068;20.806;2023-12-22T12:02:57;3.60;99.90
35491;DHT22;21605;52.068;20.806;2023-12-22T12:05:26;3.70;99.90
35491;DHT22;21605;52.068;20.806;2023-12-22T12:07:52;3.80;99.90
35491;DHT22;21605;52.068;20.806;2023-12-22T12:13:13;3.80;99.90
35491;DHT22;21605;52.068;20.806;2023-12-22T12:15:41;4.00;99.90
35491;DHT22;21605;52.068;20.806;2023-12-22T12:18:07;3.80;99.90
35491;DHT22;21605;52.068;20.806;2023-12-22T12:20:34;3.80;99.90
35491;DHT22;21605;52.068;20.806;2023-12-22T12:23:03;3.80;99.90
35491;DHT22;21605;52.068;20.806;2023-12-22T12:25:29;3.70;99.90
35491;DHT22;21605;52.068;20.806;2023-12-22T12:30:28;3.70;99.90
35491;DHT22;21605;52.068;20.806;2023-12-22T12:32:54;3.80;99.90
35491;DHT22;21605;52.068;20.806;2023-12-22T12:35:26;3.70;99.90
35491;DHT22;21605;52.068;20.806;2023-12-22T12:37:52;3.70;99.90
35491;DHT22;21605;52.068;20.806;2023-12-22T12:40:28;3.60;99.90
35491;DHT22;21605;52.068;20.806;2023-12-22T12:43:01;3.60;99.90
35491;DHT22;21605;52.068;20.806;2023-12-22T12:45:27;3.50;99.90
35491;DHT22;21605;52.068;20.806;2023-12-22T12:48:00;3.40;99.90
35491;DHT22;21605;52.068;20.806;2023-12-22T12:50:28;3.50;99.90
35491;DHT22;21605;52.068;20.806;2023-12-22T12:52:55;3.40;99.90
35491;DHT22;21605;52.068;20.806;2023-12-22T12:55:23;3.30;99.90
35491;DHT22;21605;52.068;20.806;2023-12-22T12:57:53;3.40;99.90
35491;DHT22;21605;52.068;20.806;2023-12-22T13:00:32;3.30;99.90
35491;DHT22;21605;52.068;20.806;2023-12-22T13:03:02;3.20;99.90
35491;DHT22;21605;52.068;20.806;2023-12-22T13:05:28;3.20;99.90
35491;DHT22;21605;52.068;20.806;2023-12-22T13:08:12;3.20;99.90
35491;DHT22;21605;52.068;20.806;2023-12-22T13:10:39;3.20;99.90
35491;DHT22;21605;52.068;20.806;2023-12-22T13:13:05;3.20;99.90
35491;DHT22;21605;52.068;20.806;2023-12-22T13:15:31;3.20;99.90
35491;DHT22;21605;52.068;20.806;2023-12-22T13:17:57;3.20;99.90
35491;DHT22;21605;52.068;20.806;2023-12-22T13:20:29;3.20;99.90
35491;DHT22;21605;52.068;20.806;2023-12-22T13:22:55;3.20;99.90
35491;DHT22;21605;52.068;20.806;2023-12-22T13:25:40;3.10;99.90
35491;DHT22;21605;52.068;20.806;2023-12-22T13:28:06;3.00;99.90
35491;DHT22;21605;52.068;20.806;2023-12-22T13:30:39;3.10;99.90
35491;DHT22;21605;52.068;20.806;2023-12-22T13:33:07;3.30;99.90
35491;DHT22;21605;52.068;20.806;2023-12-22T13:35:36;3.20;99.90
35491;DHT22;21605;52.068;20.806;2023-12-22T13:38:06;3.20;99.90
35491;DHT22;21605;52.068;20.806;2023-12-22T13:40:32;3.10;99.90
35491;DHT22;21605;52.068;20.806;2023-12-22T13:42:58;3.20;99.90
35491;DHT22;21605;52.068;20.806;2023-12-22T13:45:31;3.10;99.90
35491;DHT22;21605;52.068;20.806;2023-12-22T13:47:58;3.00;99.90
35491;DHT22;21605;52.068;20.806;2023-12-22T13:50:30;3.00;99.90
35491;DHT22;21605;52.068;20.806;2023-12-22T13:52:55;3.00;99.90
35491;DHT22;21605;52.068;20.806;2023-12-22T13:55:21;2.90;99.90
35491;DHT22;21605;52.068;20.806;2023-12-22T13:57:59;3.30;99.90
35491;DHT22;21605;52.068;20.806;2023-12-22T14:00:30;2.90;99.90
35491;DHT22;21605;52.068;20.806;2023-12-22T14:02:57;3.00;99.90
35491;DHT22;21605;52.068;20.806;2023-12-22T14:05:32;3.00;99.90
35491;DHT22;21605;52.068;20.806;2023-12-22T14:07:57;2.90;99.90
35491;DHT22;21605;52.068;20.806;2023-12-22T14:10:32;2.90;99.90
35491;DHT22;21605;52.068;20.806;2023-12-22T14:12:58;2.90;99.90
35491;DHT22;21605;52.068;20.806;2023-12-22T14:15:32;3.00;99.90
35491;DHT22;21605;52.068;20.806;2023-12-22T14:17:58;2.90;99.90
35491;DHT22;21605;52.068;20.806;2023-12-22T14:20:29;2.90;99.90
35491;DHT22;21605;52.068;20.806;2023-12-22T14:22:54;2.80;99.90
35491;DHT22;21605;52.068;20.806;2023-12-22T14:25:20;2.80;99.90
35491;DHT22;21605;52.068;20.806;2023-12-22T14:27:45;2.70;99.90
35491;DHT22;21605;52.068;20.806;2023-12-22T14:30:12;2.70;99.90
35491;DHT22;21605;52.068;20.806;2023-12-22T14:32:37;2.70;99.90
35491;DHT22;21605;52.068;20.806;2023-12-22T14:35:03;2.70;99.90
35491;DHT22;21605;52.068;20.806;2023-12-22T14:37:35;2.80;99.90
35491;DHT22;21605;52.068;20.806;2023-12-22T14:40:01;2.70;99.90
35491;DHT22;21605;52.068;20.806;2023-12-22T14:42:33;2.60;99.90
35491;DHT22;21605;52.068;20.806;2023-12-22T14:44:59;2.60;99.90
35491;DHT22;21605;52.068;20.806;2023-12-22T14:47:33;2.60;99.90
35491;DHT22;21605;52.068;20.806;2023-12-22T14:49:59;2.60;99.90
35491;DHT22;21605;52.068;20.806;2023-12-22T14:52:34;2.70;99.90
35491;DHT22;21605;52.068;20.806;2023-12-22T14:55:08;2.60;99.90
35491;DHT22;21605;52.068;20.806;2023-12-22T14:57:34;2.50;99.90
35491;DHT22;21605;52.068;20.806;2023-12-22T15:00:00;2.50;99.90
35491;DHT22;21605;52.068;20.806;2023-12-22T15:02:35;2.50;99.90
35491;DHT22;21605;52.068;20.806;2023-12-22T15:05:00;2.40;99.90
35491;DHT22;21605;52.068;20.806;2023-12-22T15:07:35;2.40;99.90
35491;DHT22;21605;52.068;20.806;2023-12-22T15:10:00;2.40;99.90
35491;DHT22;21605;52.068;20.806;2023-12-22T15:12:31;2.40;99.90
35491;DHT22;21605;52.068;20.806;2023-12-22T15:14:57;2.40;99.90
35491;DHT22;21605;52.068;20.806;2023-12-22T15:17:23;2.50;99.90
35491;DHT22;21605;52.068;20.806;2023-12-22T15:19:49;2.40;99.90
35491;DHT22;21605;52.068;20.806;2023-12-22T15:22:14;2.40;99.90
35491;DHT22;21605;52.068;20.806;2023-12-22T15:24:40;2.40;99.90
35491;DHT22;21605;52.068;20.806;2023-12-22T15:27:09;2.40;99.90
35491;DHT22;21605;52.068;20.806;2023-12-22T15:29:34;2.40;99.90
35491;DHT22;21605;52.068;20.806;2023-12-22T15:32:00;2.40;99.90
35491;DHT22;21605;52.068;20.806;2023-12-22T15:34:35;2.40;99.90
35491;DHT22;21605;52.068;20.806;2023-12-22T15:37:01;2.30;99.90
35491;DHT22;21605;52.068;20.806;2023-12-22T15:39:35;2.30;99.90
35491;DHT22;21605;52.068;20.806;2023-12-22T15:42:01;2.30;99.90
35491;DHT22;21605;52.068;20.806;2023-12-22T15:44:26;2.40;99.90